sensor_id;sensor_type;location;lat;lon;timestamp;pressure;altitude;pressure_sealevel;temperature;humidity
54850;BME280;47660;51.334;12.396;2023-04-27T00:00:31;100501.78;;;12.92;43.73
54850;BME280;47660;51.334;12.396;2023-04-27T00:02:56;100495.69;;;13.41;42.69
54850;BME280;47660;51.334;12.396;2023-04-27T00:05:22;100499.41;;;13.14;43.29
54850;BME280;47660;51.334;12.396;2023-04-27T00:07:47;100501.81;;;12.54;44.61
54850;BME280;47660;51.334;12.396;2023-04-27T00:10:13;100498.78;;;12.97;44.00
54850;BME280;47660;51.334;12.396;2023-04-27T00:12:38;100499.75;;;12.96;44.46
54850;BME280;47660;51.334;12.396;2023-04-27T00:15:09;100492.41;;;13.00;44.09
54850;BME280;47660;51.334;12.396;2023-04-27T00:17:35;100489.41;;;13.42;43.47
54850;BME280;47660;51.334;12.396;2023-04-27T00:20:01;100492.53;;;13.22;43.90
54850;BME280;47660;51.334;12.396;2023-04-27T00:22:29;100491.13;;;13.67;42.92
54850;BME280;47660;51.334;12.396;2023-04-27T00:24:54;100487.41;;;13.81;42.72
54850;BME280;47660;51.334;12.396;2023-04-27T00:27:22;100490.16;;;12.81;44.23
54850;BME280;47660;51.334;12.396;2023-04-27T00:29:50;100490.88;;;13.46;43.33
54850;BME280;47660;51.334;12.396;2023-04-27T00:32:15;100492.44;;;12.61;44.95
54850;BME280;47660;51.334;12.396;2023-04-27T00:34:41;100486.97;;;12.88;44.64
54850;BME280;47660;51.334;12.396;2023-04-27T00:37:08;100485.44;;;13.34;43.70
54850;BME280;47660;51.334;12.396;2023-04-27T00:39:34;100494.72;;;13.04;44.07
54850;BME280;47660;51.334;12.396;2023-04-27T00:42:00;100489.72;;;13.00;44.07
54850;BME280;47660;51.334;12.396;2023-04-27T00:44:30;100483.44;;;13.25;44.34
54850;BME280;47660;51.334;12.396;2023-04-27T00:46:57;100485.03;;;12.90;44.88
54850;BME280;47660;51.334;12.396;2023-04-27T00:49:26;100480.88;;;12.86;44.37
54850;BME280;47660;51.334;12.396;2023-04-27T00:51:51;100487.91;;;13.00;44.06
54850;BME280;47660;51.334;12.396;2023-04-27T00:54:20;100485.78;;;13.43;43.70
54850;BME280;47660;51.334;12.396;2023-04-27T00:56:49;100480.91;;;13.96;43.17
54850;BME280;47660;51.334;12.396;2023-04-27T00:59:16;100476.50;;;13.84;42.41
54850;BME280;47660;51.334;12.396;2023-04-27T01:01:41;100492.81;;;13.68;42.33
54850;BME280;47660;51.334;12.396;2023-04-27T01:04:07;100486.28;;;13.72;42.12
54850;BME280;47660;51.334;12.396;2023-04-27T01:06:32;100481.78;;;13.11;42.94
54850;BME280;47660;51.334;12.396;2023-04-27T01:08:58;100496.38;;;12.68;43.69
54850;BME280;47660;51.334;12.396;2023-04-27T01:11:23;100498.59;;;12.48;44.26
54850;BME280;47660;51.334;12.396;2023-04-27T01:13:49;100499.03;;;12.68;44.45
54850;BME280;47660;51.334;12.396;2023-04-27T01:16:17;100506.81;;;13.34;44.10
54850;BME280;47660;51.334;12.396;2023-04-27T01:18:42;100505.13;;;12.70;44.51
54850;BME280;47660;51.334;12.396;2023-04-27T01:21:08;100506.59;;;12.61;45.50
54850;BME280;47660;51.334;12.396;2023-04-27T01:23:34;100517.81;;;12.54;45.41
54850;BME280;47660;51.334;12.396;2023-04-27T01:25:59;100511.06;;;12.87;45.21
54850;BME280;47660;51.334;12.396;2023-04-27T01:28:25;100509.81;;;12.54;45.91
54850;BME280;47660;51.334;12.396;2023-04-27T01:30:50;100513.44;;;12.66;45.64
54850;BME280;47660;51.334;12.396;2023-04-27T01:33:16;100517.03;;;12.77;45.49
54850;BME280;47660;51.334;12.396;2023-04-27T01:35:41;100516.22;;;12.64;45.46
54850;BME280;47660;51.334;12.396;2023-04-27T01:38:07;100517.69;;;12.42;45.92
54850;BME280;47660;51.334;12.396;2023-04-27T01:40:37;100511.00;;;13.63;45.00
54850;BME280;47660;51.334;12.396;2023-04-27T01:43:03;100519.25;;;13.10;44.76
54850;BME280;47660;51.334;12.396;2023-04-27T01:45:29;100520.47;;;12.54;45.29
54850;BME280;47660;51.334;12.396;2023-04-27T01:47:57;100515.03;;;13.44;44.55
54850;BME280;47660;51.334;12.396;2023-04-27T01:50:22;100521.09;;;12.31;45.78
54850;BME280;47660;51.334;12.396;2023-04-27T01:52:47;100523.97;;;12.54;45.28
54850;BME280;47660;51.334;12.396;2023-04-27T01:55:15;100524.63;;;12.84;44.34
54850;BME280;47660;51.334;12.396;2023-04-27T01:57:40;100526.84;;;12.25;45.41
54850;BME280;47660;51.334;12.396;2023-04-27T02:00:06;100527.44;;;12.03;46.10
54850;BME280;47660;51.334;12.396;2023-04-27T02:02:32;100523.34;;;11.42;47.02
54850;BME280;47660;51.334;12.396;2023-04-27T02:04:57;100521.16;;;11.35;47.03
54850;BME280;47660;51.334;12.396;2023-04-27T02:07:23;100529.16;;;11.62;46.79
54850;BME280;47660;51.334;12.396;2023-04-27T02:09:48;100523.19;;;12.13;44.85
54850;BME280;47660;51.334;12.396;2023-04-27T02:12:13;100531.22;;;11.99;46.31
54850;BME280;47660;51.334;12.396;2023-04-27T02:14:39;100519.84;;;12.76;44.46
54850;BME280;47660;51.334;12.396;2023-04-27T02:17:04;100523.13;;;12.67;44.36
54850;BME280;47660;51.334;12.396;2023-04-27T02:19:30;100533.63;;;11.76;45.55
54850;BME280;47660;51.334;12.396;2023-04-27T02:21:55;100528.22;;;11.91;45.74
54850;BME280;47660;51.334;12.396;2023-04-27T02:24:21;100540.84;;;12.42;44.76
54850;BME280;47660;51.334;12.396;2023-04-27T02:26:46;100535.03;;;11.95;45.26
54850;BME280;47660;51.334;12.396;2023-04-27T02:29:12;100536.47;;;11.73;45.74
54850;BME280;47660;51.334;12.396;2023-04-27T02:31:37;100536.94;;;12.07;45.63
54850;BME280;47660;51.334;12.396;2023-04-27T02:34:02;100541.38;;;12.07;45.48
54850;BME280;47660;51.334;12.396;2023-04-27T02:36:28;100541.63;;;11.62;46.29
54850;BME280;47660;51.334;12.396;2023-04-27T02:38:53;100545.03;;;11.78;45.92
54850;BME280;47660;51.334;12.396;2023-04-27T02:41:18;100548.47;;;11.66;46.23
54850;BME280;47660;51.334;12.396;2023-04-27T02:43:45;100554.75;;;11.65;46.81
54850;BME280;47660;51.334;12.396;2023-04-27T02:46:11;100552.38;;;11.60;46.22
54850;BME280;47660;51.334;12.396;2023-04-27T02:48:36;100559.09;;;11.38;46.29
54850;BME280;47660;51.334;12.396;2023-04-27T02:51:05;100553.97;;;12.04;45.66
54850;BME280;47660;51.334;12.396;2023-04-27T02:53:31;100555.00;;;11.74;46.00
54850;BME280;47660;51.334;12.396;2023-04-27T02:55:56;100551.03;;;11.95;45.21
54850;BME280;47660;51.334;12.396;2023-04-27T02:58:22;100554.09;;;11.61;45.94
54850;BME280;47660;51.334;12.396;2023-04-27T03:00:55;100546.09;;;12.03;46.41
54850;BME280;47660;51.334;12.396;2023-04-27T03:03:21;100552.66;;;11.70;46.28
54850;BME280;47660;51.334;12.396;2023-04-27T03:05:47;100550.66;;;11.59;46.12
54850;BME280;47660;51.334;12.396;2023-04-27T03:08:12;100562.00;;;11.90;45.16
54850;BME280;47660;51.334;12.396;2023-04-27T03:10:38;100562.03;;;11.76;45.55
54850;BME280;47660;51.334;12.396;2023-04-27T03:13:03;100563.88;;;11.61;46.10
54850;BME280;47660;51.334;12.396;2023-04-27T03:15:28;100562.50;;;11.40;46.67
54850;BME280;47660;51.334;12.396;2023-04-27T03:17:54;100567.19;;;11.64;46.72
54850;BME280;47660;51.334;12.396;2023-04-27T03:20:20;100562.72;;;12.73;44.95
54850;BME280;47660;51.334;12.396;2023-04-27T03:22:46;100566.72;;;12.27;44.60
54850;BME280;47660;51.334;12.396;2023-04-27T03:25:11;100568.72;;;12.23;44.96
54850;BME280;47660;51.334;12.396;2023-04-27T03:27:37;100566.41;;;12.44;44.63
54850;BME280;47660;51.334;12.396;2023-04-27T03:30:03;100570.81;;;12.58;44.58
54850;BME280;47660;51.334;12.396;2023-04-27T03:32:29;100578.06;;;12.03;44.81
54850;BME280;47660;51.334;12.396;2023-04-27T03:34:55;100573.88;;;11.57;45.68
54850;BME280;47660;51.334;12.396;2023-04-27T03:37:22;100571.50;;;11.67;45.66
54850;BME280;47660;51.334;12.396;2023-04-27T03:39:48;100575.94;;;11.94;45.06
54850;BME280;47660;51.334;12.396;2023-04-27T03:42:13;100579.44;;;12.09;45.15
54850;BME280;47660;51.334;12.396;2023-04-27T03:44:38;100576.34;;;12.02;45.34
54850;BME280;47660;51.334;12.396;2023-04-27T03:47:04;100578.47;;;12.10;44.86
54850;BME280;47660;51.334;12.396;2023-04-27T03:49:33;100577.09;;;11.89;45.54
54850;BME280;47660;51.334;12.396;2023-04-27T03:51:59;100579.97;;;11.86;45.68
54850;BME280;47660;51.334;12.396;2023-04-27T03:54:24;100580.28;;;11.82;45.44
54850;BME280;47660;51.334;12.396;2023-04-27T03:56:50;100580.50;;;12.46;44.22
54850;BME280;47660;51.334;12.396;2023-04-27T03:59:17;100583.59;;;13.05;43.13
54850;BME280;47660;51.334;12.396;2023-04-27T04:01:45;100585.00;;;12.85;43.56
54850;BME280;47660;51.334;12.396;2023-04-27T04:04:11;100593.13;;;13.22;42.49
54850;BME280;47660;51.334;12.396;2023-04-27T04:06:39;100599.31;;;13.22;42.55
54850;BME280;47660;51.334;12.396;2023-04-27T04:09:05;100592.81;;;13.14;42.68
54850;BME280;47660;51.334;12.396;2023-04-27T04:11:30;100610.28;;;12.66;43.71
54850;BME280;47660;51.334;12.396;2023-04-27T04:13:56;100612.75;;;13.08;42.98
54850;BME280;47660;51.334;12.396;2023-04-27T04:16:21;100617.25;;;13.46;42.22
54850;BME280;47660;51.334;12.396;2023-04-27T04:18:46;100631.34;;;13.10;43.13
54850;BME280;47660;51.334;12.396;2023-04-27T04:21:12;100619.91;;;13.20;42.00
54850;BME280;47660;51.334;12.396;2023-04-27T04:23:38;100624.38;;;12.94;42.91
54850;BME280;47660;51.334;12.396;2023-04-27T04:26:05;100621.72;;;12.94;43.27
54850;BME280;47660;51.334;12.396;2023-04-27T04:28:31;100623.97;;;13.52;41.80
54850;BME280;47660;51.334;12.396;2023-04-27T04:30:56;100624.41;;;13.20;42.61
54850;BME280;47660;51.334;12.396;2023-04-27T04:33:23;100619.88;;;13.33;42.35
54850;BME280;47660;51.334;12.396;2023-04-27T04:35:48;100614.88;;;12.51;43.95
54850;BME280;47660;51.334;12.396;2023-04-27T04:38:13;100618.56;;;12.48;44.06
54850;BME280;47660;51.334;12.396;2023-04-27T04:40:39;100620.41;;;12.61;44.69
54850;BME280;47660;51.334;12.396;2023-04-27T04:43:09;100618.09;;;13.47;42.32
54850;BME280;47660;51.334;12.396;2023-04-27T04:45:35;100623.50;;;12.68;44.06
54850;BME280;47660;51.334;12.396;2023-04-27T04:48:05;100617.75;;;13.64;43.30
54850;BME280;47660;51.334;12.396;2023-04-27T04:50:31;100619.38;;;12.89;44.06
54850;BME280;47660;51.334;12.396;2023-04-27T04:52:56;100623.13;;;12.33;44.58
54850;BME280;47660;51.334;12.396;2023-04-27T04:55:25;100619.25;;;13.04;44.83
54850;BME280;47660;51.334;12.396;2023-04-27T04:57:52;100616.66;;;12.51;44.75
54850;BME280;47660;51.334;12.396;2023-04-27T05:00:18;100610.53;;;13.15;43.75
54850;BME280;47660;51.334;12.396;2023-04-27T05:02:43;100614.13;;;13.27;43.65
54850;BME280;47660;51.334;12.396;2023-04-27T05:05:09;100620.66;;;13.86;42.61
54850;BME280;47660;51.334;12.396;2023-04-27T05:07:34;100614.97;;;13.90;42.33
54850;BME280;47660;51.334;12.396;2023-04-27T05:10:00;100615.63;;;15.24;39.97
54850;BME280;47660;51.334;12.396;2023-04-27T05:12:25;100617.06;;;14.22;42.03
54850;BME280;47660;51.334;12.396;2023-04-27T05:15:05;100615.88;;;14.98;40.92
54850;BME280;47660;51.334;12.396;2023-04-27T05:17:31;100619.50;;;14.25;41.46
54850;BME280;47660;51.334;12.396;2023-04-27T05:19:59;100616.69;;;13.15;43.59
54850;BME280;47660;51.334;12.396;2023-04-27T05:22:25;100622.06;;;13.02;43.69
54850;BME280;47660;51.334;12.396;2023-04-27T05:24:50;100615.13;;;13.13;43.55
54850;BME280;47660;51.334;12.396;2023-04-27T05:27:18;100621.44;;;12.45;44.79
54850;BME280;47660;51.334;12.396;2023-04-27T05:29:43;100621.81;;;12.67;45.45
54850;BME280;47660;51.334;12.396;2023-04-27T05:32:12;100623.13;;;12.33;45.91
54850;BME280;47660;51.334;12.396;2023-04-27T05:34:37;100614.75;;;13.93;43.42
54850;BME280;47660;51.334;12.396;2023-04-27T05:37:03;100620.63;;;13.35;43.49
54850;BME280;47660;51.334;12.396;2023-04-27T05:39:28;100627.59;;;14.37;41.99
54850;BME280;47660;51.334;12.396;2023-04-27T05:41:54;100615.56;;;14.07;42.81
54850;BME280;47660;51.334;12.396;2023-04-27T05:44:19;100621.72;;;13.46;43.46
54850;BME280;47660;51.334;12.396;2023-04-27T05:46:45;100616.00;;;14.61;41.56
54850;BME280;47660;51.334;12.396;2023-04-27T05:49:10;100619.88;;;14.81;40.62
54850;BME280;47660;51.334;12.396;2023-04-27T05:51:38;100621.06;;;14.77;40.90
54850;BME280;47660;51.334;12.396;2023-04-27T05:54:03;100626.38;;;13.68;43.00
54850;BME280;47660;51.334;12.396;2023-04-27T05:56:29;100624.28;;;14.58;41.80
54850;BME280;47660;51.334;12.396;2023-04-27T05:58:59;100614.38;;;14.82;41.06
54850;BME280;47660;51.334;12.396;2023-04-27T06:01:25;100614.25;;;14.73;40.63
54850;BME280;47660;51.334;12.396;2023-04-27T06:03:52;100623.66;;;14.30;41.78
54850;BME280;47660;51.334;12.396;2023-04-27T06:06:20;100626.66;;;14.74;41.06
54850;BME280;47660;51.334;12.396;2023-04-27T06:08:45;100625.81;;;15.75;38.88
54850;BME280;47660;51.334;12.396;2023-04-27T06:11:11;100621.72;;;15.60;39.59
54850;BME280;47660;51.334;12.396;2023-04-27T06:13:36;100627.31;;;14.04;41.54
54850;BME280;47660;51.334;12.396;2023-04-27T06:16:01;100629.06;;;14.41;41.19
54850;BME280;47660;51.334;12.396;2023-04-27T06:18:30;100627.31;;;15.34;39.82
54850;BME280;47660;51.334;12.396;2023-04-27T06:21:01;100634.34;;;16.03;39.14
54850;BME280;47660;51.334;12.396;2023-04-27T06:23:27;100637.19;;;15.68;39.08
54850;BME280;47660;51.334;12.396;2023-04-27T06:25:52;100629.63;;;15.05;39.92
54850;BME280;47660;51.334;12.396;2023-04-27T06:28:20;100628.94;;;15.37;39.24
54850;BME280;47660;51.334;12.396;2023-04-27T06:30:48;100631.97;;;15.43;39.66
54850;BME280;47660;51.334;12.396;2023-04-27T06:33:14;100635.84;;;15.51;39.46
54850;BME280;47660;51.334;12.396;2023-04-27T06:35:39;100634.41;;;15.58;39.20
54850;BME280;47660;51.334;12.396;2023-04-27T06:38:08;100645.19;;;15.91;39.06
54850;BME280;47660;51.334;12.396;2023-04-27T06:40:34;100647.13;;;14.97;40.78
54850;BME280;47660;51.334;12.396;2023-04-27T06:43:02;100646.91;;;15.69;39.39
54850;BME280;47660;51.334;12.396;2023-04-27T06:45:27;100651.44;;;16.35;38.69
54850;BME280;47660;51.334;12.396;2023-04-27T06:47:55;100647.16;;;15.43;40.48
54850;BME280;47660;51.334;12.396;2023-04-27T06:50:21;100646.50;;;16.40;39.01
54850;BME280;47660;51.334;12.396;2023-04-27T06:52:46;100656.38;;;16.72;38.42
54850;BME280;47660;51.334;12.396;2023-04-27T06:55:14;100654.72;;;16.60;38.49
54850;BME280;47660;51.334;12.396;2023-04-27T06:57:39;100650.44;;;17.42;37.35
54850;BME280;47660;51.334;12.396;2023-04-27T07:00:05;100648.59;;;16.04;40.19
54850;BME280;47660;51.334;12.396;2023-04-27T07:02:31;100646.78;;;16.37;39.00
54850;BME280;47660;51.334;12.396;2023-04-27T07:04:57;100647.47;;;16.39;39.65
54850;BME280;47660;51.334;12.396;2023-04-27T07:07:22;100654.16;;;17.51;37.85
54850;BME280;47660;51.334;12.396;2023-04-27T07:09:47;100656.94;;;17.40;37.73
54850;BME280;47660;51.334;12.396;2023-04-27T07:12:13;100655.66;;;17.75;37.16
54850;BME280;47660;51.334;12.396;2023-04-27T07:14:38;100654.06;;;17.62;37.36
54850;BME280;47660;51.334;12.396;2023-04-27T07:17:04;100664.13;;;17.29;37.84
54850;BME280;47660;51.334;12.396;2023-04-27T07:19:29;100661.81;;;17.56;37.89
54850;BME280;47660;51.334;12.396;2023-04-27T07:21:55;100663.56;;;18.37;35.98
54850;BME280;47660;51.334;12.396;2023-04-27T07:24:20;100660.91;;;19.34;34.17
54850;BME280;47660;51.334;12.396;2023-04-27T07:26:46;100660.44;;;18.02;35.80
54850;BME280;47660;51.334;12.396;2023-04-27T07:29:13;100658.28;;;19.14;34.71
54850;BME280;47660;51.334;12.396;2023-04-27T07:31:41;100657.72;;;18.91;35.61
54850;BME280;47660;51.334;12.396;2023-04-27T07:34:06;100667.97;;;18.77;35.34
54850;BME280;47660;51.334;12.396;2023-04-27T07:36:32;100670.09;;;17.12;37.26
54850;BME280;47660;51.334;12.396;2023-04-27T07:38:58;100672.56;;;17.25;36.88
54850;BME280;47660;51.334;12.396;2023-04-27T07:41:26;100654.81;;;19.32;34.98
54850;BME280;47660;51.334;12.396;2023-04-27T07:43:54;100677.59;;;18.40;35.71
54850;BME280;47660;51.334;12.396;2023-04-27T07:46:25;100669.44;;;19.67;34.65
54850;BME280;47660;51.334;12.396;2023-04-27T07:48:53;100668.06;;;19.25;34.98
54850;BME280;47660;51.334;12.396;2023-04-27T07:51:21;100678.84;;;18.07;36.55
54850;BME280;47660;51.334;12.396;2023-04-27T07:53:46;100687.34;;;17.40;37.07
54850;BME280;47660;51.334;12.396;2023-04-27T07:56:12;100674.47;;;18.75;35.62
54850;BME280;47660;51.334;12.396;2023-04-27T07:58:37;100683.81;;;18.21;36.08
54850;BME280;47660;51.334;12.396;2023-04-27T08:01:03;100691.56;;;17.12;37.43
54850;BME280;47660;51.334;12.396;2023-04-27T08:03:31;100683.34;;;18.06;35.76
54850;BME280;47660;51.334;12.396;2023-04-27T08:05:56;100683.53;;;18.44;35.52
54850;BME280;47660;51.334;12.396;2023-04-27T08:08:22;100688.22;;;17.81;36.77
54850;BME280;47660;51.334;12.396;2023-04-27T08:10:47;100691.72;;;16.56;39.12
54850;BME280;47660;51.334;12.396;2023-04-27T08:13:15;100693.81;;;16.95;38.02
54850;BME280;47660;51.334;12.396;2023-04-27T08:15:40;100687.13;;;17.94;35.66
54850;BME280;47660;51.334;12.396;2023-04-27T08:18:06;100694.94;;;16.92;38.56
54850;BME280;47660;51.334;12.396;2023-04-27T08:20:31;100692.84;;;18.10;36.64
54850;BME280;47660;51.334;12.396;2023-04-27T08:22:59;100677.72;;;19.18;34.47
54850;BME280;47660;51.334;12.396;2023-04-27T08:25:25;100687.38;;;18.61;35.57
54850;BME280;47660;51.334;12.396;2023-04-27T08:27:51;100688.91;;;18.83;34.82
54850;BME280;47660;51.334;12.396;2023-04-27T08:30:16;100692.28;;;18.17;36.14
54850;BME280;47660;51.334;12.396;2023-04-27T08:32:44;100691.22;;;18.78;36.15
54850;BME280;47660;51.334;12.396;2023-04-27T08:35:10;100693.00;;;18.19;36.80
54850;BME280;47660;51.334;12.396;2023-04-27T08:37:35;100682.97;;;18.60;36.74
54850;BME280;47660;51.334;12.396;2023-04-27T08:40:03;100684.81;;;18.89;34.62
54850;BME280;47660;51.334;12.396;2023-04-27T08:42:31;100690.75;;;17.83;35.90
54850;BME280;47660;51.334;12.396;2023-04-27T08:44:57;100675.47;;;18.93;34.64
54850;BME280;47660;51.334;12.396;2023-04-27T08:47:22;100671.84;;;19.32;34.73
54850;BME280;47660;51.334;12.396;2023-04-27T08:49:50;100678.44;;;18.41;36.15
54850;BME280;47660;51.334;12.396;2023-04-27T08:52:16;100660.44;;;19.76;34.74
54850;BME280;47660;51.334;12.396;2023-04-27T08:54:43;100666.78;;;19.19;34.48
54850;BME280;47660;51.334;12.396;2023-04-27T08:57:10;100664.53;;;20.08;33.67
54850;BME280;47660;51.334;12.396;2023-04-27T08:59:36;100682.44;;;18.47;35.42
54850;BME280;47660;51.334;12.396;2023-04-27T09:02:02;100655.69;;;19.98;33.57
54850;BME280;47660;51.334;12.396;2023-04-27T09:04:38;100663.31;;;19.74;32.31
54850;BME280;47660;51.334;12.396;2023-04-27T09:07:14;100656.13;;;22.22;30.04
54850;BME280;47660;51.334;12.396;2023-04-27T09:09:40;100658.22;;;20.90;32.63
54850;BME280;47660;51.334;12.396;2023-04-27T09:12:19;100660.50;;;21.29;32.61
54850;BME280;47660;51.334;12.396;2023-04-27T09:14:55;100657.69;;;20.50;31.45
54850;BME280;47660;51.334;12.396;2023-04-27T09:17:25;100649.06;;;21.35;30.56
54850;BME280;47660;51.334;12.396;2023-04-27T09:20:01;100664.16;;;18.40;34.23
54850;BME280;47660;51.334;12.396;2023-04-27T09:22:30;100658.16;;;19.15;33.82
54850;BME280;47660;51.334;12.396;2023-04-27T09:24:59;100658.28;;;19.52;33.32
54850;BME280;47660;51.334;12.396;2023-04-27T09:27:25;100659.34;;;18.24;33.58
54850;BME280;47660;51.334;12.396;2023-04-27T09:29:51;100654.66;;;18.66;33.60
54850;BME280;47660;51.334;12.396;2023-04-27T09:32:17;100651.03;;;19.90;32.53
54850;BME280;47660;51.334;12.396;2023-04-27T09:34:45;100651.25;;;19.41;30.80
54850;BME280;47660;51.334;12.396;2023-04-27T09:37:13;100649.66;;;19.76;30.61
54850;BME280;47660;51.334;12.396;2023-04-27T09:39:40;100646.66;;;19.04;32.02
54850;BME280;47660;51.334;12.396;2023-04-27T09:42:09;100656.44;;;18.06;32.20
54850;BME280;47660;51.334;12.396;2023-04-27T09:44:35;100641.78;;;19.27;31.30
54850;BME280;47660;51.334;12.396;2023-04-27T09:47:03;100633.41;;;20.32;30.09
54850;BME280;47660;51.334;12.396;2023-04-27T09:49:29;100644.47;;;19.27;31.39
54850;BME280;47660;51.334;12.396;2023-04-27T09:51:55;100632.72;;;19.84;31.46
54850;BME280;47660;51.334;12.396;2023-04-27T09:54:30;100635.56;;;20.65;31.89
54850;BME280;47660;51.334;12.396;2023-04-27T10:00:19;100625.72;;;22.70;29.45
54850;BME280;47660;51.334;12.396;2023-04-27T10:03:02;100642.66;;;21.10;30.93
54850;BME280;47660;51.334;12.396;2023-04-27T10:08:11;100640.91;;;18.10;32.28
54850;BME280;47660;51.334;12.396;2023-04-27T10:10:47;100628.53;;;20.36;30.08
54850;BME280;47660;51.334;12.396;2023-04-27T10:13:30;100628.28;;;21.44;29.12
54850;BME280;47660;51.334;12.396;2023-04-27T10:15:55;100628.13;;;20.48;29.26
54850;BME280;47660;51.334;12.396;2023-04-27T10:18:30;100626.44;;;19.65;30.59
54850;BME280;47660;51.334;12.396;2023-04-27T10:21:10;100630.06;;;20.02;31.10
54850;BME280;47660;51.334;12.396;2023-04-27T10:23:49;100631.22;;;19.99;31.38
54850;BME280;47660;51.334;12.396;2023-04-27T10:26:26;100629.56;;;20.16;31.60
54850;BME280;47660;51.334;12.396;2023-04-27T10:29:04;100632.31;;;21.66;28.53
54850;BME280;47660;51.334;12.396;2023-04-27T10:31:31;100629.41;;;20.36;30.45
54850;BME280;47660;51.334;12.396;2023-04-27T10:34:27;100631.41;;;20.34;30.47
54850;BME280;47660;51.334;12.396;2023-04-27T10:37:04;100631.94;;;20.01;31.55
54850;BME280;47660;51.334;12.396;2023-04-27T10:39:34;100630.03;;;20.30;31.77
54850;BME280;47660;51.334;12.396;2023-04-27T10:42:06;100637.78;;;19.97;32.08
54850;BME280;47660;51.334;12.396;2023-04-27T10:44:34;100635.56;;;19.82;31.97
54850;BME280;47660;51.334;12.396;2023-04-27T10:47:16;100640.31;;;19.98;32.69
54850;BME280;47660;51.334;12.396;2023-04-27T10:49:44;100646.72;;;18.45;33.38
54850;BME280;47660;51.334;12.396;2023-04-27T10:52:12;100640.78;;;19.94;31.22
54850;BME280;47660;51.334;12.396;2023-04-27T10:54:44;100633.41;;;20.50;31.01
54850;BME280;47660;51.334;12.396;2023-04-27T10:57:11;100633.25;;;20.96;30.06
54850;BME280;47660;51.334;12.396;2023-04-27T10:59:49;100631.84;;;19.93;30.78
54850;BME280;47660;51.334;12.396;2023-04-27T11:02:15;100624.72;;;20.20;30.05
54850;BME280;47660;51.334;12.396;2023-04-27T11:04:43;100635.78;;;19.43;30.21
54850;BME280;47660;51.334;12.396;2023-04-27T11:07:10;100633.44;;;20.76;29.42
54850;BME280;47660;51.334;12.396;2023-04-27T11:09:37;100624.53;;;20.03;30.05
54850;BME280;47660;51.334;12.396;2023-04-27T11:12:11;100634.94;;;19.98;29.96
54850;BME280;47660;51.334;12.396;2023-04-27T11:14:37;100629.22;;;20.01;29.57
54850;BME280;47660;51.334;12.396;2023-04-27T11:17:03;100631.25;;;20.17;29.81
54850;BME280;47660;51.334;12.396;2023-04-27T11:19:29;100628.47;;;21.51;28.11
54850;BME280;47660;51.334;12.396;2023-04-27T11:22:05;100622.88;;;21.44;28.59
54850;BME280;47660;51.334;12.396;2023-04-27T11:24:31;100632.97;;;19.35;30.93
54850;BME280;47660;51.334;12.396;2023-04-27T11:26:57;100641.66;;;19.28;30.54
54850;BME280;47660;51.334;12.396;2023-04-27T11:29:25;100636.94;;;21.21;28.35
54850;BME280;47660;51.334;12.396;2023-04-27T11:31:50;100632.63;;;22.39;27.49
54850;BME280;47660;51.334;12.396;2023-04-27T11:34:17;100625.16;;;20.96;28.57
54850;BME280;47660;51.334;12.396;2023-04-27T11:36:43;100628.06;;;20.04;30.01
54850;BME280;47660;51.334;12.396;2023-04-27T11:39:16;100629.03;;;21.20;28.30
54850;BME280;47660;51.334;12.396;2023-04-27T11:41:45;100628.31;;;20.11;29.41
54850;BME280;47660;51.334;12.396;2023-04-27T11:44:11;100637.47;;;19.72;30.39
54850;BME280;47660;51.334;12.396;2023-04-27T11:46:37;100637.25;;;21.10;28.53
54850;BME280;47660;51.334;12.396;2023-04-27T11:49:04;100630.75;;;20.04;29.12
54850;BME280;47660;51.334;12.396;2023-04-27T11:51:33;100625.03;;;21.32;27.79
54850;BME280;47660;51.334;12.396;2023-04-27T11:54:02;100624.53;;;20.40;28.80
54850;BME280;47660;51.334;12.396;2023-04-27T11:56:41;100624.38;;;21.65;27.75
54850;BME280;47660;51.334;12.396;2023-04-27T11:59:21;100627.75;;;20.07;29.50
54850;BME280;47660;51.334;12.396;2023-04-27T12:01:51;100629.72;;;20.33;28.28
54850;BME280;47660;51.334;12.396;2023-04-27T12:04:17;100639.59;;;19.40;29.57
54850;BME280;47660;51.334;12.396;2023-04-27T12:06:42;100632.53;;;20.49;29.00
54850;BME280;47660;51.334;12.396;2023-04-27T12:09:11;100635.97;;;20.96;28.82
54850;BME280;47660;51.334;12.396;2023-04-27T12:11:36;100636.53;;;18.68;30.91
54850;BME280;47660;51.334;12.396;2023-04-27T12:14:01;100626.69;;;19.44;30.47
54850;BME280;47660;51.334;12.396;2023-04-27T12:16:27;100628.13;;;19.38;29.89
54850;BME280;47660;51.334;12.396;2023-04-27T12:18:52;100629.22;;;20.01;29.70
54850;BME280;47660;51.334;12.396;2023-04-27T12:21:18;100622.38;;;20.25;30.18
54850;BME280;47660;51.334;12.396;2023-04-27T12:23:46;100623.28;;;20.52;29.35
54850;BME280;47660;51.334;12.396;2023-04-27T12:26:11;100625.75;;;20.82;29.01
54850;BME280;47660;51.334;12.396;2023-04-27T12:28:37;100621.56;;;21.91;28.06
54850;BME280;47660;51.334;12.396;2023-04-27T12:31:05;100638.25;;;20.65;29.73
54850;BME280;47660;51.334;12.396;2023-04-27T12:33:33;100625.66;;;20.01;29.41
54850;BME280;47660;51.334;12.396;2023-04-27T12:35:58;100629.81;;;21.39;28.02
54850;BME280;47660;51.334;12.396;2023-04-27T12:38:23;100628.00;;;19.86;28.86
54850;BME280;47660;51.334;12.396;2023-04-27T12:40:49;100623.56;;;21.46;27.93
54850;BME280;47660;51.334;12.396;2023-04-27T12:43:14;100607.31;;;24.01;24.59
54850;BME280;47660;51.334;12.396;2023-04-27T12:45:40;100611.84;;;23.78;24.81